createdAt,value
2018-12-21T00:00:05.576Z,8.38
2018-12-21T00:00:17.951Z,8.38
2018-12-21T00:00:30.317Z,8.38
2018-12-21T00:00:42.759Z,8.38
2018-12-21T00:00:55.126Z,8.38
2018-12-21T00:01:07.501Z,8.38
2018-12-21T00:01:19.872Z,8.38
2018-12-21T00:01:32.257Z,8.38
2018-12-21T00:01:46.840Z,8.38
2018-12-21T00:01:59.294Z,8.38
2018-12-21T00:02:11.669Z,8.38
2018-12-21T00:02:24.198Z,8.38
2018-12-21T00:02:36.556Z,8.38
2018-12-21T00:02:51.157Z,8.38
2018-12-21T00:03:03.504Z,8.38
2018-12-21T00:03:16.038Z,8.38
2018-12-21T00:03:28.394Z,8.38
2018-12-21T00:03:40.741Z,8.38
2018-12-21T00:03:53.129Z,8.38
2018-12-21T00:04:05.480Z,8.38
2018-12-21T00:04:17.965Z,8.38
2018-12-21T00:04:30.457Z,8.38
2018-12-21T00:04:42.818Z,8.38
2018-12-21T00:04:55.184Z,8.38
2018-12-21T00:05:07.526Z,8.38
2018-12-21T00:05:19.918Z,8.38
2018-12-21T00:05:32.277Z,9.59
2018-12-21T00:05:44.662Z,9.59
2018-12-21T00:05:57.005Z,9.59
2018-12-21T00:06:09.338Z,9.59
2018-12-21T00:06:21.679Z,9.59
2018-12-21T00:06:34.057Z,9.59
2018-12-21T00:06:46.409Z,9.59
2018-12-21T00:06:58.768Z,9.59
2018-12-21T00:07:11.264Z,9.59
2018-12-21T00:07:23.714Z,9.59
2018-12-21T00:07:36.099Z,9.59
2018-12-21T00:07:48.499Z,9.59
2018-12-21T00:08:02.175Z,9.59
2018-12-21T00:08:14.722Z,9.59
2018-12-21T00:08:27.071Z,9.59
2018-12-21T00:08:39.503Z,9.59
2018-12-21T00:08:51.872Z,9.59
2018-12-21T00:09:04.298Z,9.59
2018-12-21T00:09:16.626Z,9.59
2018-12-21T00:09:29.026Z,9.59
2018-12-21T00:09:41.439Z,9.59
2018-12-21T00:09:53.801Z,9.59
2018-12-21T00:10:06.171Z,9.59
2018-12-21T00:10:18.545Z,9.59
2018-12-21T00:10:30.895Z,9.59
2018-12-21T00:10:43.235Z,9.59
2018-12-21T00:10:55.727Z,9.59
2018-12-21T00:11:08.092Z,9.59
2018-12-21T00:11:20.435Z,9.59
2018-12-21T00:11:32.962Z,9.59
2018-12-21T00:11:45.308Z,9.59
2018-12-21T00:11:57.646Z,9.59
2018-12-21T00:12:10.095Z,9.59
2018-12-21T00:12:22.422Z,9.59
2018-12-21T00:12:34.751Z,9.59
2018-12-21T00:12:47.167Z,9.59
2018-12-21T00:12:59.500Z,9.59
2018-12-21T00:13:11.839Z,9.59
2018-12-21T00:13:24.286Z,9.59
2018-12-21T00:13:36.677Z,9.59
2018-12-21T00:13:49.009Z,9.59
2018-12-21T00:14:01.359Z,9.59
2018-12-21T00:14:13.706Z,9.59
2018-12-21T00:14:26.283Z,9.59
2018-12-21T00:14:38.636Z,9.59
2018-12-21T00:14:51.088Z,9.59
2018-12-21T00:15:03.446Z,9.59
2018-12-21T00:15:15.815Z,9.59
2018-12-21T00:15:28.153Z,7.88
2018-12-21T00:15:40.492Z,7.88
2018-12-21T00:15:52.834Z,7.88
2018-12-21T00:16:05.158Z,7.88
2018-12-21T00:16:17.492Z,7.88
2018-12-21T00:16:29.836Z,7.88
2018-12-21T00:16:42.204Z,7.88
2018-12-21T00:16:54.557Z,7.88
2018-12-21T00:17:06.987Z,7.88
2018-12-21T00:17:19.336Z,7.88
2018-12-21T00:17:40.044Z,7.88
2018-12-21T00:17:52.387Z,7.88
2018-12-21T00:18:04.723Z,7.88
2018-12-21T00:18:17.287Z,7.88
2018-12-21T00:18:29.633Z,7.88
2018-12-21T00:18:41.978Z,7.88
2018-12-21T00:18:54.319Z,7.88
2018-12-21T00:19:06.673Z,7.88
2018-12-21T00:19:19.040Z,7.88
2018-12-21T00:19:31.399Z,7.88
2018-12-21T00:19:43.845Z,7.88
2018-12-21T00:19:56.288Z,7.88
2018-12-21T00:20:08.651Z,7.88
2018-12-21T00:20:21.129Z,7.88
2018-12-21T00:20:33.481Z,7.88
2018-12-21T00:20:45.835Z,7.88
2018-12-21T00:20:58.170Z,7.88
2018-12-21T00:21:10.538Z,7.88
2018-12-21T00:21:30.760Z,7.88
2018-12-21T00:21:43.093Z,7.88
2018-12-21T00:21:55.447Z,7.88
2018-12-21T00:22:07.799Z,7.88
2018-12-21T00:22:20.147Z,7.88
2018-12-21T00:22:32.515Z,7.88
2018-12-21T00:22:44.863Z,7.88
2018-12-21T00:22:57.249Z,7.88
2018-12-21T00:23:09.601Z,7.88
2018-12-21T00:23:21.946Z,7.88
2018-12-21T00:23:34.308Z,7.88
2018-12-21T00:23:46.639Z,7.88
2018-12-21T00:23:58.962Z,7.88
2018-12-21T00:24:11.307Z,7.88
2018-12-21T00:24:23.672Z,7.88
2018-12-21T00:24:36.159Z,7.88
2018-12-21T00:24:48.554Z,7.88
2018-12-21T00:25:00.891Z,7.88
2018-12-21T00:25:13.244Z,7.88
2018-12-21T00:25:25.582Z,6.79
2018-12-21T00:25:37.942Z,6.79
2018-12-21T00:25:50.273Z,6.79
2018-12-21T00:26:02.610Z,6.79
2018-12-21T00:26:14.970Z,6.79
2018-12-21T00:26:27.425Z,6.79
2018-12-21T00:26:39.937Z,6.79
2018-12-21T00:26:52.283Z,6.79
2018-12-21T00:27:04.715Z,6.79
2018-12-21T00:27:17.161Z,6.79
2018-12-21T00:27:29.510Z,6.79
2018-12-21T00:27:41.857Z,6.79
2018-12-21T00:27:54.315Z,6.79
2018-12-21T00:28:06.655Z,6.79
2018-12-21T00:28:19.010Z,6.79
2018-12-21T00:28:31.450Z,6.79
2018-12-21T00:28:43.789Z,6.79
2018-12-21T00:28:56.116Z,6.79
2018-12-21T00:29:08.456Z,6.79
2018-12-21T00:29:20.801Z,6.79
2018-12-21T00:29:33.140Z,6.79
2018-12-21T00:29:45.573Z,6.79
2018-12-21T00:29:58.047Z,6.79
2018-12-21T00:30:10.565Z,6.79
2018-12-21T00:30:23.089Z,6.79
2018-12-21T00:30:35.499Z,6.79
2018-12-21T00:30:47.844Z,6.79
2018-12-21T00:31:00.181Z,6.79
2018-12-21T00:31:12.584Z,6.79
2018-12-21T00:31:26.960Z,6.79
2018-12-21T00:31:39.300Z,6.79
2018-12-21T00:31:51.813Z,6.79
2018-12-21T00:32:04.191Z,6.79
2018-12-21T00:32:16.543Z,6.79
2018-12-21T00:32:28.899Z,6.79
2018-12-21T00:32:41.265Z,6.79
2018-12-21T00:32:53.604Z,6.79
2018-12-21T00:33:05.941Z,6.79
2018-12-21T00:33:18.304Z,6.79
2018-12-21T00:33:30.642Z,6.79
2018-12-21T00:33:42.994Z,6.79
2018-12-21T00:33:55.349Z,6.79
2018-12-21T00:34:07.696Z,6.79
2018-12-21T00:34:20.035Z,6.79
2018-12-21T00:34:32.388Z,6.79
2018-12-21T00:34:44.761Z,6.79
2018-12-21T00:34:57.192Z,6.79
2018-12-21T00:35:09.584Z,6.79
2018-12-21T00:35:21.915Z,6.79
2018-12-21T00:35:34.267Z,6.73
2018-12-21T00:35:46.642Z,6.73
2018-12-21T00:35:59.074Z,6.73
2018-12-21T00:36:11.406Z,6.73
2018-12-21T00:36:23.982Z,6.73
2018-12-21T00:36:36.327Z,6.73
2018-12-21T00:36:48.843Z,6.73
2018-12-21T00:37:01.194Z,6.73
2018-12-21T00:37:13.656Z,6.73
2018-12-21T00:37:26.033Z,6.73
2018-12-21T00:37:38.434Z,6.73
2018-12-21T00:37:50.769Z,6.73
2018-12-21T00:38:03.167Z,6.73
2018-12-21T00:38:17.076Z,6.73
2018-12-21T00:38:29.429Z,6.73
2018-12-21T00:38:41.773Z,6.73
2018-12-21T00:38:54.129Z,6.73
2018-12-21T00:39:06.710Z,6.73
2018-12-21T00:39:19.060Z,6.73
2018-12-21T00:39:31.407Z,6.73
2018-12-21T00:39:43.745Z,6.73
2018-12-21T00:39:56.252Z,6.73
2018-12-21T00:40:08.589Z,6.73
2018-12-21T00:40:21.054Z,6.73
2018-12-21T00:40:33.387Z,6.73
2018-12-21T00:40:45.725Z,6.73
2018-12-21T00:40:58.071Z,6.73
2018-12-21T00:41:10.640Z,6.73
2018-12-21T00:41:22.981Z,6.73
2018-12-21T00:41:35.329Z,6.73
2018-12-21T00:41:47.656Z,6.73
2018-12-21T00:41:59.999Z,6.73
2018-12-21T00:42:12.358Z,6.73
2018-12-21T00:42:24.695Z,6.73
2018-12-21T00:42:37.034Z,6.73
2018-12-21T00:42:49.405Z,6.73
2018-12-21T00:43:01.801Z,6.73
2018-12-21T00:43:14.152Z,6.73
2018-12-21T00:43:26.608Z,6.73
2018-12-21T00:43:38.943Z,6.73
2018-12-21T00:43:51.277Z,6.73
2018-12-21T00:44:03.641Z,6.73
2018-12-21T00:44:15.992Z,6.73
2018-12-21T00:44:28.351Z,6.73
2018-12-21T00:44:40.792Z,6.73
2018-12-21T00:44:53.137Z,6.73
2018-12-21T00:45:05.475Z,6.73
2018-12-21T00:45:17.818Z,6.73
2018-12-21T00:45:30.162Z,9.37
2018-12-21T00:45:42.506Z,9.37
2018-12-21T00:45:54.848Z,9.37
2018-12-21T00:46:07.196Z,9.37
2018-12-21T00:46:19.712Z,9.37
2018-12-21T00:46:32.057Z,9.37
2018-12-21T00:46:44.376Z,9.37
2018-12-21T00:46:56.703Z,9.37
2018-12-21T00:47:09.165Z,9.37
2018-12-21T00:47:21.706Z,9.37
2018-12-21T00:47:34.044Z,9.37
2018-12-21T00:47:46.369Z,9.37
2018-12-21T00:47:58.699Z,9.37
2018-12-21T00:48:11.068Z,9.37
2018-12-21T00:48:23.491Z,9.37
2018-12-21T00:48:35.844Z,9.37
2018-12-21T00:48:48.192Z,9.37
2018-12-21T00:49:00.533Z,9.37
2018-12-21T00:49:12.870Z,9.37
2018-12-21T00:49:25.218Z,9.37
2018-12-21T00:49:37.682Z,9.37
2018-12-21T00:49:50.056Z,9.37
2018-12-21T00:50:02.404Z,9.37
2018-12-21T00:50:15.038Z,9.37
2018-12-21T00:50:27.401Z,9.37
2018-12-21T00:50:39.742Z,9.37
2018-12-21T00:50:52.241Z,9.37
2018-12-21T00:51:04.578Z,9.37
2018-12-21T00:51:16.927Z,9.37
2018-12-21T00:51:36.865Z,9.37
2018-12-21T00:51:49.212Z,9.37
2018-12-21T00:52:01.562Z,9.37
2018-12-21T00:52:14.069Z,9.37
2018-12-21T00:52:26.607Z,9.37
2018-12-21T00:52:38.944Z,9.37
2018-12-21T00:52:51.279Z,9.37
2018-12-21T00:53:03.630Z,9.37
2018-12-21T00:53:16.070Z,9.37
2018-12-21T00:53:28.496Z,9.37
2018-12-21T00:53:40.835Z,9.37
2018-12-21T00:53:53.170Z,9.37
2018-12-21T00:54:05.526Z,9.37
2018-12-21T00:54:18.100Z,9.37
2018-12-21T00:54:30.445Z,9.37
2018-12-21T00:54:42.779Z,9.37
2018-12-21T00:54:55.111Z,9.37
2018-12-21T00:55:07.572Z,9.37
2018-12-21T00:55:19.943Z,9.37
2018-12-21T00:55:32.387Z,7.93
2018-12-21T00:55:44.721Z,7.93
2018-12-21T00:55:57.075Z,7.93
2018-12-21T00:56:09.416Z,7.93
2018-12-21T00:56:21.761Z,7.93
2018-12-21T00:56:34.105Z,7.93
2018-12-21T00:56:46.433Z,7.93
2018-12-21T00:56:58.791Z,7.93
2018-12-21T00:57:11.171Z,7.93
2018-12-21T00:57:23.512Z,7.93
2018-12-21T00:57:35.847Z,7.93
2018-12-21T00:57:48.182Z,7.93
2018-12-21T00:58:00.521Z,7.93
2018-12-21T00:58:12.859Z,7.93
2018-12-21T00:58:25.210Z,7.93
2018-12-21T00:58:37.547Z,7.93
2018-12-21T00:58:49.998Z,7.93
2018-12-21T00:59:02.341Z,7.93
2018-12-21T00:59:14.682Z,7.93
2018-12-21T00:59:27.115Z,7.93
2018-12-21T00:59:39.465Z,7.93
2018-12-21T00:59:51.799Z,7.93
2018-12-21T01:00:04.145Z,7.93
2018-12-21T01:00:16.518Z,7.93
2018-12-21T01:00:28.920Z,7.93
2018-12-21T01:00:41.281Z,7.93
2018-12-21T01:00:53.617Z,7.93
2018-12-21T01:01:05.972Z,7.93
2018-12-21T01:01:18.319Z,7.93
2018-12-21T01:01:30.681Z,7.93
2018-12-21T01:01:43.232Z,7.93
2018-12-21T01:01:55.572Z,7.93
2018-12-21T01:02:07.933Z,7.93
2018-12-21T01:02:20.441Z,7.93
2018-12-21T01:02:32.824Z,7.93
2018-12-21T01:02:45.192Z,7.93
2018-12-21T01:02:57.556Z,7.93
2018-12-21T01:03:11.352Z,7.93
2018-12-21T01:03:23.816Z,7.93
2018-12-21T01:03:36.196Z,7.93
2018-12-21T01:03:48.655Z,7.93
2018-12-21T01:04:01.009Z,7.93
2018-12-21T01:04:13.371Z,7.93
2018-12-21T01:04:25.739Z,7.93
2018-12-21T01:04:38.080Z,7.93
2018-12-21T01:04:50.434Z,7.93
2018-12-21T01:05:02.801Z,7.93
2018-12-21T01:05:15.147Z,7.93
2018-12-21T01:05:27.492Z,12.28
2018-12-21T01:05:39.967Z,12.28
2018-12-21T01:05:52.310Z,12.28
2018-12-21T01:06:04.645Z,12.28
2018-12-21T01:06:17.038Z,12.28
2018-12-21T01:06:29.409Z,12.28
2018-12-21T01:06:41.863Z,12.28
2018-12-21T01:06:54.229Z,12.28
2018-12-21T01:07:06.576Z,12.28
2018-12-21T01:07:18.928Z,12.28
2018-12-21T01:07:31.271Z,12.28
2018-12-21T01:07:43.618Z,12.28
2018-12-21T01:07:55.953Z,12.28
2018-12-21T01:08:08.319Z,12.28
2018-12-21T01:08:20.832Z,12.28
2018-12-21T01:08:33.194Z,12.28
2018-12-21T01:08:45.557Z,12.28
2018-12-21T01:08:57.918Z,12.28
2018-12-21T01:09:10.342Z,12.28
2018-12-21T01:09:22.754Z,12.28
2018-12-21T01:09:35.157Z,12.28
2018-12-21T01:09:47.503Z,12.28
2018-12-21T01:09:59.852Z,12.28
2018-12-21T01:10:12.218Z,12.28
2018-12-21T01:10:24.564Z,12.28
2018-12-21T01:10:36.904Z,12.28
2018-12-21T01:10:49.254Z,12.28
2018-12-21T01:11:01.716Z,12.28
2018-12-21T01:11:14.072Z,12.28
2018-12-21T01:11:26.473Z,12.28
2018-12-21T01:11:38.807Z,12.28
2018-12-21T01:11:51.159Z,12.28
2018-12-21T01:12:03.503Z,12.28
2018-12-21T01:12:15.835Z,12.28
2018-12-21T01:12:28.173Z,12.28
2018-12-21T01:12:40.511Z,12.28
2018-12-21T01:12:52.846Z,12.28
2018-12-21T01:13:05.197Z,12.28
2018-12-21T01:13:19.797Z,12.28
2018-12-21T01:13:32.169Z,12.28
2018-12-21T01:13:44.525Z,12.28
2018-12-21T01:13:56.987Z,12.28
2018-12-21T01:14:09.433Z,12.28
2018-12-21T01:14:21.878Z,12.28
2018-12-21T01:14:34.422Z,12.28
2018-12-21T01:14:46.771Z,12.28
2018-12-21T01:14:59.149Z,12.28
2018-12-21T01:15:11.499Z,12.28
2018-12-21T01:15:23.856Z,12.28
2018-12-21T01:15:36.204Z,7.98
2018-12-21T01:15:48.554Z,7.98
2018-12-21T01:16:00.904Z,7.98
2018-12-21T01:16:13.247Z,7.98
2018-12-21T01:16:25.600Z,7.98
2018-12-21T01:16:37.954Z,7.98
2018-12-21T01:16:50.318Z,7.98
2018-12-21T01:17:02.789Z,7.98
2018-12-21T01:17:15.183Z,7.98
2018-12-21T01:17:27.536Z,7.98
2018-12-21T01:17:39.986Z,7.98
2018-12-21T01:17:52.412Z,7.98
2018-12-21T01:18:04.748Z,7.98
2018-12-21T01:18:17.225Z,7.98
2018-12-21T01:18:29.580Z,7.98
2018-12-21T01:18:41.933Z,7.98
2018-12-21T01:18:54.280Z,7.98
2018-12-21T01:19:06.616Z,7.98
2018-12-21T01:19:18.969Z,7.98
2018-12-21T01:19:31.411Z,7.98
2018-12-21T01:19:43.774Z,7.98
2018-12-21T01:19:56.121Z,7.98
2018-12-21T01:20:08.483Z,7.98
2018-12-21T01:20:20.990Z,7.98
2018-12-21T01:20:33.438Z,7.98
2018-12-21T01:20:45.775Z,7.98
2018-12-21T01:20:58.181Z,7.98
2018-12-21T01:21:10.522Z,7.98
2018-12-21T01:21:22.882Z,7.98
2018-12-21T01:21:43.159Z,7.98
2018-12-21T01:21:55.507Z,7.98
2018-12-21T01:22:07.829Z,7.98
2018-12-21T01:22:20.163Z,7.98
2018-12-21T01:22:32.505Z,7.98
2018-12-21T01:22:44.848Z,7.98
2018-12-21T01:22:57.209Z,7.98
2018-12-21T01:23:09.539Z,7.98
2018-12-21T01:23:21.879Z,7.98
2018-12-21T01:23:34.212Z,7.98
2018-12-21T01:23:46.543Z,7.98
2018-12-21T01:23:58.881Z,7.98
2018-12-21T01:24:11.227Z,7.98
2018-12-21T01:24:23.585Z,7.98
2018-12-21T01:24:36.084Z,7.98
2018-12-21T01:24:48.418Z,7.98
2018-12-21T01:25:00.758Z,7.98
2018-12-21T01:25:13.096Z,7.98
2018-12-21T01:25:25.552Z,7.98
2018-12-21T01:25:37.901Z,8
2018-12-21T01:25:50.251Z,8
2018-12-21T01:26:02.585Z,8
2018-12-21T01:26:14.960Z,8
2018-12-21T01:26:27.332Z,8
2018-12-21T01:26:39.823Z,8
2018-12-21T01:26:52.171Z,8
2018-12-21T01:27:04.507Z,8
2018-12-21T01:27:16.841Z,8
2018-12-21T01:27:29.191Z,8
2018-12-21T01:27:41.526Z,8
2018-12-21T01:27:53.908Z,8
2018-12-21T01:28:06.249Z,8
2018-12-21T01:28:18.600Z,8
2018-12-21T01:28:31.132Z,8
2018-12-21T01:28:43.493Z,8
2018-12-21T01:28:55.837Z,8
2018-12-21T01:29:08.172Z,8
2018-12-21T01:29:20.503Z,8
2018-12-21T01:29:32.940Z,8
2018-12-21T01:29:45.276Z,8
2018-12-21T01:29:57.601Z,8
2018-12-21T01:30:10.142Z,8
2018-12-21T01:30:22.660Z,8
2018-12-21T01:30:35.002Z,8
2018-12-21T01:30:47.353Z,8
2018-12-21T01:30:59.703Z,8
2018-12-21T01:31:12.052Z,8
2018-12-21T01:31:24.410Z,8
2018-12-21T01:31:36.757Z,8
2018-12-21T01:31:49.111Z,8
2018-12-21T01:32:01.561Z,8
2018-12-21T01:32:13.921Z,8
2018-12-21T01:32:26.266Z,8
2018-12-21T01:32:38.623Z,8
2018-12-21T01:32:50.984Z,8
2018-12-21T01:33:03.340Z,8
2018-12-21T01:33:15.681Z,8
2018-12-21T01:33:28.034Z,8
2018-12-21T01:33:40.401Z,8
2018-12-21T01:33:52.852Z,8
2018-12-21T01:34:05.392Z,8
2018-12-21T01:34:17.782Z,8
2018-12-21T01:34:30.119Z,8
2018-12-21T01:34:42.455Z,8
2018-12-21T01:34:54.787Z,8
2018-12-21T01:35:07.127Z,8
2018-12-21T01:35:19.543Z,8
2018-12-21T01:35:31.959Z,8.96
2018-12-21T01:35:44.304Z,8.96
2018-12-21T01:35:56.640Z,8.96
2018-12-21T01:36:08.967Z,8.96
2018-12-21T01:36:21.449Z,8.96
2018-12-21T01:36:33.800Z,8.96
2018-12-21T01:36:46.287Z,8.96
2018-12-21T01:36:58.618Z,8.96
2018-12-21T01:37:10.967Z,8.96
2018-12-21T01:37:23.315Z,8.96
2018-12-21T01:37:35.661Z,8.96
2018-12-21T01:37:47.998Z,8.96
2018-12-21T01:38:00.337Z,8.96
2018-12-21T01:38:12.684Z,8.96
2018-12-21T01:38:25.037Z,8.96
2018-12-21T01:38:37.502Z,8.96
2018-12-21T01:38:49.839Z,8.96
2018-12-21T01:39:02.248Z,8.96
2018-12-21T01:39:14.823Z,8.96
2018-12-21T01:39:27.240Z,8.96
2018-12-21T01:39:39.570Z,8.96
2018-12-21T01:39:51.906Z,8.96
2018-12-21T01:40:04.576Z,8.96
2018-12-21T01:40:16.918Z,8.96
2018-12-21T01:40:29.267Z,8.96
2018-12-21T01:40:41.605Z,8.96
2018-12-21T01:40:53.983Z,8.96
2018-12-21T01:41:06.341Z,8.96
2018-12-21T01:41:18.888Z,8.96
2018-12-21T01:41:31.232Z,8.96
2018-12-21T01:41:43.581Z,8.96
2018-12-21T01:41:55.913Z,8.96
2018-12-21T01:42:08.260Z,8.96
2018-12-21T01:42:20.600Z,8.96
2018-12-21T01:42:32.957Z,8.96
2018-12-21T01:42:45.360Z,8.96
2018-12-21T01:42:57.697Z,8.96
2018-12-21T01:43:10.045Z,8.96
2018-12-21T01:43:22.414Z,8.96
2018-12-21T01:43:34.751Z,8.96
2018-12-21T01:43:47.208Z,8.96
2018-12-21T01:43:59.549Z,8.96
2018-12-21T01:44:13.515Z,8.96
2018-12-21T01:44:25.902Z,8.96
2018-12-21T01:44:38.251Z,8.96
2018-12-21T01:44:50.606Z,8.96
2018-12-21T01:45:03.054Z,8.96
2018-12-21T01:45:15.400Z,8.96
2018-12-21T01:45:27.754Z,8.96
2018-12-21T01:45:40.114Z,6.83
2018-12-21T01:45:52.480Z,6.83
2018-12-21T01:46:04.841Z,6.83
2018-12-21T01:46:17.173Z,6.83
2018-12-21T01:46:29.493Z,6.83
2018-12-21T01:46:41.833Z,6.83
2018-12-21T01:46:54.186Z,6.83
2018-12-21T01:47:06.708Z,6.83
2018-12-21T01:47:19.045Z,6.83
2018-12-21T01:47:31.483Z,6.83
2018-12-21T01:47:43.819Z,6.83
2018-12-21T01:47:56.176Z,6.83
2018-12-21T01:48:08.509Z,6.83
2018-12-21T01:48:20.843Z,6.83
2018-12-21T01:48:33.209Z,6.83
2018-12-21T01:48:45.557Z,6.83
2018-12-21T01:48:57.913Z,6.83
2018-12-21T01:49:10.260Z,6.83
2018-12-21T01:49:22.624Z,6.83
2018-12-21T01:49:35.200Z,6.83
2018-12-21T01:49:47.752Z,6.83
2018-12-21T01:50:00.082Z,6.83
2018-12-21T01:50:12.629Z,6.83
2018-12-21T01:50:25.002Z,6.83
2018-12-21T01:50:37.340Z,6.83
2018-12-21T01:50:50.261Z,6.83
2018-12-21T01:51:02.600Z,6.83
2018-12-21T01:51:14.951Z,6.83
2018-12-21T01:51:27.291Z,6.83
2018-12-21T01:51:48.157Z,6.83
2018-12-21T01:52:00.521Z,6.83
2018-12-21T01:52:13.015Z,6.83
2018-12-21T01:52:25.563Z,6.83
2018-12-21T01:52:37.883Z,6.83
2018-12-21T01:52:50.228Z,6.83
2018-12-21T01:53:02.566Z,6.83
2018-12-21T01:53:15.019Z,6.83
2018-12-21T01:53:27.514Z,6.83
2018-12-21T01:53:39.870Z,6.83
2018-12-21T01:53:52.312Z,6.83
2018-12-21T01:54:04.654Z,6.83
2018-12-21T01:54:17.135Z,6.83
2018-12-21T01:54:29.487Z,6.83
2018-12-21T01:54:41.838Z,6.83
2018-12-21T01:54:54.314Z,6.83
2018-12-21T01:55:06.894Z,6.83
2018-12-21T01:55:19.242Z,6.83
2018-12-21T01:55:31.573Z,6.63
2018-12-21T01:55:44.060Z,6.63
2018-12-21T01:55:56.417Z,6.63
2018-12-21T01:56:08.769Z,6.63
2018-12-21T01:56:21.131Z,6.63
2018-12-21T01:56:33.475Z,6.63
2018-12-21T01:56:45.801Z,6.63
2018-12-21T01:56:58.244Z,6.63
2018-12-21T01:57:10.590Z,6.63
2018-12-21T01:57:22.933Z,6.63
2018-12-21T01:57:35.371Z,6.63
2018-12-21T01:57:47.743Z,6.63
2018-12-21T01:58:00.104Z,6.63
2018-12-21T01:58:12.470Z,6.63
2018-12-21T01:58:24.896Z,6.63
2018-12-21T01:58:37.221Z,6.63
2018-12-21T01:58:49.568Z,6.63
2018-12-21T01:59:01.909Z,6.63
2018-12-21T01:59:14.247Z,6.63
2018-12-21T01:59:26.699Z,6.63
2018-12-21T01:59:39.032Z,6.63
2018-12-21T01:59:51.458Z,6.63
2018-12-21T02:00:03.801Z,6.63
2018-12-21T02:00:16.161Z,6.63
2018-12-21T02:00:28.530Z,6.63
2018-12-21T02:00:40.904Z,6.63
2018-12-21T02:00:53.306Z,6.63
2018-12-21T02:01:05.669Z,6.63
2018-12-21T02:01:18.032Z,6.63
2018-12-21T02:01:30.381Z,6.63
2018-12-21T02:01:43.021Z,6.63
2018-12-21T02:01:55.371Z,6.63
2018-12-21T02:02:07.808Z,6.63
2018-12-21T02:02:20.308Z,6.63
2018-12-21T02:02:32.643Z,6.63
2018-12-21T02:02:45.035Z,6.63
2018-12-21T02:02:57.374Z,6.63
2018-12-21T02:03:09.861Z,6.63
2018-12-21T02:03:22.322Z,6.63
2018-12-21T02:03:34.667Z,6.63
2018-12-21T02:03:47.020Z,6.63
2018-12-21T02:03:59.366Z,6.63
2018-12-21T02:04:11.703Z,6.63
2018-12-21T02:04:24.051Z,6.63
2018-12-21T02:04:36.442Z,6.63
2018-12-21T02:04:48.784Z,6.63
2018-12-21T02:05:01.130Z,6.63
2018-12-21T02:05:13.486Z,6.63
2018-12-21T02:05:25.826Z,6.63
2018-12-21T02:05:38.177Z,5.96
2018-12-21T02:05:50.524Z,5.96
2018-12-21T02:06:02.886Z,5.96
2018-12-21T02:06:15.241Z,5.96
2018-12-21T02:06:27.604Z,5.96
2018-12-21T02:06:39.993Z,5.96
2018-12-21T02:06:52.473Z,5.96
2018-12-21T02:07:04.817Z,5.96
2018-12-21T02:07:17.164Z,5.96
2018-12-21T02:07:29.505Z,5.96
2018-12-21T02:07:41.925Z,5.96
2018-12-21T02:07:54.290Z,5.96
2018-12-21T02:08:06.642Z,5.96
2018-12-21T02:08:19.150Z,5.96
2018-12-21T02:08:31.511Z,5.96
2018-12-21T02:08:43.858Z,5.96
2018-12-21T02:08:56.204Z,5.96
2018-12-21T02:09:08.562Z,5.96
2018-12-21T02:09:20.896Z,5.96
2018-12-21T02:09:33.256Z,5.96
2018-12-21T02:09:45.580Z,5.96
2018-12-21T02:09:58.045Z,5.96
2018-12-21T02:10:10.761Z,5.96
2018-12-21T02:10:23.106Z,5.96
2018-12-21T02:10:35.439Z,5.96
2018-12-21T02:10:47.988Z,5.96
2018-12-21T02:11:00.348Z,5.96
2018-12-21T02:11:12.688Z,5.96
2018-12-21T02:11:25.136Z,5.96
2018-12-21T02:11:37.474Z,5.96
2018-12-21T02:11:49.822Z,5.96
2018-12-21T02:12:02.147Z,5.96
2018-12-21T02:12:14.486Z,5.96
2018-12-21T02:12:26.888Z,5.96
2018-12-21T02:12:39.236Z,5.96
2018-12-21T02:12:51.589Z,5.96
2018-12-21T02:13:03.942Z,5.96
2018-12-21T02:13:16.282Z,5.96
2018-12-21T02:13:28.726Z,5.96
2018-12-21T02:13:41.088Z,5.96
2018-12-21T02:13:53.446Z,5.96
2018-12-21T02:14:05.796Z,5.96
2018-12-21T02:14:18.137Z,5.96
2018-12-21T02:14:30.710Z,5.96
2018-12-21T02:14:43.069Z,5.96
2018-12-21T02:14:55.421Z,5.96
2018-12-21T02:15:07.781Z,5.96
2018-12-21T02:15:20.111Z,5.96
2018-12-21T02:15:32.457Z,4.43
2018-12-21T02:15:44.921Z,4.43
2018-12-21T02:15:57.274Z,4.43
2018-12-21T02:16:09.634Z,4.43
2018-12-21T02:16:21.970Z,4.43
2018-12-21T02:16:34.304Z,4.43
2018-12-21T02:16:46.643Z,4.43
2018-12-21T02:16:58.988Z,4.43
2018-12-21T02:17:11.341Z,4.43
2018-12-21T02:17:23.823Z,4.43
2018-12-21T02:17:36.160Z,4.43
2018-12-21T02:17:48.552Z,4.43
2018-12-21T02:18:00.887Z,4.43
2018-12-21T02:18:13.434Z,4.43
2018-12-21T02:18:25.773Z,4.43
2018-12-21T02:18:38.113Z,4.43
2018-12-21T02:18:50.449Z,4.43
2018-12-21T02:19:02.810Z,4.43
2018-12-21T02:19:15.160Z,4.43
2018-12-21T02:19:27.500Z,4.43
2018-12-21T02:19:39.845Z,4.43
2018-12-21T02:19:52.173Z,4.43
2018-12-21T02:20:04.535Z,4.43
2018-12-21T02:20:17.036Z,4.43
2018-12-21T02:20:29.414Z,4.43
2018-12-21T02:20:41.765Z,4.43
2018-12-21T02:20:54.097Z,4.43
2018-12-21T02:21:06.426Z,4.43
2018-12-21T02:21:18.773Z,4.43
2018-12-21T02:21:31.230Z,4.43
2018-12-21T02:21:43.695Z,4.43
2018-12-21T02:22:04.877Z,4.43
2018-12-21T02:22:17.205Z,4.43
2018-12-21T02:22:29.604Z,4.43
2018-12-21T02:22:41.974Z,4.43
2018-12-21T02:22:54.315Z,4.43
2018-12-21T02:23:06.771Z,4.43
2018-12-21T02:23:19.111Z,4.43
2018-12-21T02:23:31.441Z,4.43
2018-12-21T02:23:43.785Z,4.43
2018-12-21T02:23:56.127Z,4.43
2018-12-21T02:24:08.526Z,4.43
2018-12-21T02:24:20.892Z,4.43
2018-12-21T02:24:33.331Z,4.43
2018-12-21T02:24:45.671Z,4.43
2018-12-21T02:24:58.034Z,4.43
2018-12-21T02:25:10.407Z,4.43
2018-12-21T02:25:22.809Z,4.43
2018-12-21T02:25:35.163Z,5.65
2018-12-21T02:25:47.494Z,5.65
2018-12-21T02:25:59.850Z,5.65
2018-12-21T02:26:12.275Z,5.65
2018-12-21T02:26:24.633Z,5.65
2018-12-21T02:26:36.973Z,5.65
2018-12-21T02:26:49.758Z,5.65
2018-12-21T02:27:02.101Z,5.65
2018-12-21T02:27:14.444Z,5.65
2018-12-21T02:27:26.792Z,5.65
2018-12-21T02:27:39.137Z,5.65
2018-12-21T02:27:51.490Z,5.65
2018-12-21T02:28:03.853Z,5.65
2018-12-21T02:28:16.306Z,5.65
2018-12-21T02:28:28.792Z,5.65
2018-12-21T02:28:41.248Z,5.65
2018-12-21T02:28:53.579Z,5.65
2018-12-21T02:29:05.930Z,5.65
2018-12-21T02:29:18.378Z,5.65
2018-12-21T02:29:30.780Z,5.65
2018-12-21T02:29:43.116Z,5.65
2018-12-21T02:29:55.461Z,5.65
2018-12-21T02:30:08.127Z,5.65
2018-12-21T02:30:20.871Z,5.65
2018-12-21T02:30:33.241Z,5.65
2018-12-21T02:30:45.616Z,5.65
2018-12-21T02:30:58.014Z,5.65
2018-12-21T02:31:10.375Z,5.65
2018-12-21T02:31:22.871Z,5.65
2018-12-21T02:31:35.212Z,5.65
2018-12-21T02:31:47.752Z,5.65
2018-12-21T02:32:00.141Z,5.65
2018-12-21T02:32:12.539Z,5.65
2018-12-21T02:32:24.924Z,5.65
2018-12-21T02:32:37.265Z,5.65
2018-12-21T02:32:49.693Z,5.65
2018-12-21T02:33:02.038Z,5.65
2018-12-21T02:33:14.423Z,5.65
2018-12-21T02:33:26.784Z,5.65
2018-12-21T02:33:39.141Z,5.65
2018-12-21T02:33:51.524Z,5.65
2018-12-21T02:34:03.885Z,5.65
2018-12-21T02:34:16.233Z,5.65
2018-12-21T02:34:28.584Z,5.65
2018-12-21T02:34:41.039Z,5.65
2018-12-21T02:34:53.384Z,5.65
2018-12-21T02:35:05.745Z,5.65
2018-12-21T02:35:18.218Z,5.65
2018-12-21T02:35:30.553Z,5.65
2018-12-21T02:35:42.921Z,3.9
2018-12-21T02:35:55.332Z,3.9
2018-12-21T02:36:07.760Z,3.9
2018-12-21T02:36:20.189Z,3.9
2018-12-21T02:36:32.553Z,3.9
2018-12-21T02:36:45.087Z,3.9
2018-12-21T02:36:57.464Z,3.9
2018-12-21T02:37:09.817Z,3.9
2018-12-21T02:37:22.173Z,3.9
2018-12-21T02:37:34.517Z,3.9
2018-12-21T02:37:46.866Z,3.9
2018-12-21T02:37:59.333Z,3.9
2018-12-21T02:38:11.724Z,3.9
2018-12-21T02:38:24.130Z,3.9
2018-12-21T02:38:36.492Z,3.9
2018-12-21T02:38:48.837Z,3.9
2018-12-21T02:39:01.224Z,3.9
2018-12-21T02:39:13.611Z,3.9
2018-12-21T02:39:26.080Z,3.9
2018-12-21T02:39:38.452Z,3.9
2018-12-21T02:39:50.945Z,3.9
2018-12-21T02:40:03.480Z,3.9
2018-12-21T02:40:15.901Z,3.9
2018-12-21T02:40:28.361Z,3.9
2018-12-21T02:40:40.736Z,3.9
2018-12-21T02:40:53.223Z,3.9
2018-12-21T02:41:05.619Z,3.9
2018-12-21T02:41:18.097Z,3.9
2018-12-21T02:41:30.630Z,3.9
2018-12-21T02:41:42.979Z,3.9
2018-12-21T02:41:55.363Z,3.9
2018-12-21T02:42:07.726Z,3.9
2018-12-21T02:42:20.132Z,3.9
2018-12-21T02:42:32.473Z,3.9
2018-12-21T02:42:44.875Z,3.9
2018-12-21T02:42:57.319Z,3.9
2018-12-21T02:43:09.671Z,3.9
2018-12-21T02:43:22.102Z,3.9
2018-12-21T02:43:34.445Z,3.9
2018-12-21T02:43:46.793Z,3.9
2018-12-21T02:43:59.147Z,3.9
2018-12-21T02:44:11.498Z,3.9
2018-12-21T02:44:23.969Z,3.9
2018-12-21T02:44:36.306Z,3.9
2018-12-21T02:44:48.670Z,3.9
2018-12-21T02:45:01.018Z,3.9
2018-12-21T02:45:13.391Z,3.9
2018-12-21T02:45:25.793Z,3.9
2018-12-21T02:45:38.219Z,4.65
2018-12-21T02:45:50.736Z,4.65
2018-12-21T02:46:03.079Z,4.65
2018-12-21T02:46:15.507Z,4.65
2018-12-21T02:46:27.866Z,4.65
2018-12-21T02:46:40.229Z,4.65
2018-12-21T02:46:52.601Z,4.65